QTR7A HECA-OTHH
Flight info
| Callsign | QTR7A |
|---|---|
| Flight time | 2h 35m |
| Altitude | 41000 |
| Route | CVO L677 MENLI N697 SISIK W976 DATOK L550 KARIK B411 DEESA Y415 TAMRO N318 HAYYA |
| Aircraft | A359/H-SBDE1E2E3GHIJ1J3J4J5J6M1M2P2RWXYZ/LB1D1 |
Departure
| Time | 2026-05-07 11:55 |
|---|---|
| Airport | Cairo International Airport (HECA) |
Arrival
| Time | 2026-05-07 14:30 |
|---|---|
| Airport | Hamad International Airport (OTHH) |
| Time | Latitude | Longitude | Altitude | Speed | Heading |
|---|---|---|---|---|---|
| 2026-05-07 11:17 | 30.11401 | 31.40064 | 381 ft | 0 kts | 278° |
| 2026-05-07 11:42 | 30.11400 | 31.40069 | 380 ft | 4 kts | 278° |
| 2026-05-07 11:42 | 30.11396 | 31.40100 | 403 ft | 4 kts | 278° |
| 2026-05-07 11:42 | 30.11392 | 31.40131 | 380 ft | 4 kts | 278° |
| 2026-05-07 11:43 | 30.11387 | 31.40157 | 380 ft | 4 kts | 303° |
| 2026-05-07 11:43 | 30.11369 | 31.40170 | 380 ft | 4 kts | 4° |
| 2026-05-07 11:43 | 30.11347 | 31.40167 | 380 ft | 0 kts | 5° |
| 2026-05-07 11:46 | 30.11349 | 31.40167 | 380 ft | 1 kts | 5° |
| 2026-05-07 11:46 | 30.11378 | 31.40171 | 380 ft | 7 kts | 10° |
| 2026-05-07 11:46 | 30.11438 | 31.40218 | 380 ft | 14 kts | 44° |
| 2026-05-07 11:46 | 30.11441 | 31.40321 | 380 ft | 15 kts | 129° |
| 2026-05-07 11:47 | 30.11346 | 31.40421 | 380 ft | 22 kts | 139° |
| 2026-05-07 11:47 | 30.11214 | 31.40552 | 381 ft | 27 kts | 139° |
| 2026-05-07 11:47 | 30.11091 | 31.40673 | 381 ft | 0 kts | 140° |
| 2026-05-07 11:47 | 30.11080 | 31.40684 | 381 ft | 7 kts | 139° |
| 2026-05-07 11:48 | 30.11088 | 31.40756 | 381 ft | 14 kts | 53° |
| 2026-05-07 11:48 | 30.11167 | 31.40865 | 381 ft | 21 kts | 49° |
| 2026-05-07 11:48 | 30.11279 | 31.41013 | 381 ft | 26 kts | 49° |
| 2026-05-07 11:48 | 30.11399 | 31.41172 | 381 ft | 26 kts | 48° |
| 2026-05-07 11:49 | 30.11559 | 31.41215 | 381 ft | 25 kts | 346° |
| 2026-05-07 11:49 | 30.11734 | 31.41152 | 381 ft | 27 kts | 342° |
| 2026-05-07 11:49 | 30.11914 | 31.41085 | 381 ft | 27 kts | 342° |
| 2026-05-07 11:49 | 30.12097 | 31.41020 | 381 ft | 28 kts | 342° |
| 2026-05-07 11:50 | 30.12286 | 31.40952 | 381 ft | 29 kts | 342° |
| 2026-05-07 11:50 | 30.12491 | 31.40878 | 381 ft | 31 kts | 342° |
| 2026-05-07 11:50 | 30.12698 | 31.40801 | 381 ft | 31 kts | 343° |
| 2026-05-07 11:50 | 30.12901 | 31.40730 | 381 ft | 30 kts | 342° |
| 2026-05-07 11:51 | 30.13099 | 31.40654 | 381 ft | 30 kts | 334° |
| 2026-05-07 11:51 | 30.13220 | 31.40466 | 381 ft | 31 kts | 290° |
| 2026-05-07 11:51 | 30.13273 | 31.40212 | 381 ft | 34 kts | 276° |
| 2026-05-07 11:51 | 30.13181 | 31.39973 | 381 ft | 34 kts | 230° |
| 2026-05-07 11:52 | 30.13027 | 31.39763 | 381 ft | 35 kts | 230° |
| 2026-05-07 11:52 | 30.12865 | 31.39546 | 381 ft | 36 kts | 229° |
| 2026-05-07 11:52 | 30.12696 | 31.39323 | 381 ft | 37 kts | 229° |
| 2026-05-07 11:52 | 30.12529 | 31.39094 | 381 ft | 38 kts | 230° |
| 2026-05-07 11:53 | 30.12354 | 31.38858 | 381 ft | 39 kts | 229° |
| 2026-05-07 11:53 | 30.12173 | 31.38618 | 381 ft | 40 kts | 229° |
| 2026-05-07 11:53 | 30.11988 | 31.38372 | 381 ft | 41 kts | 230° |
| 2026-05-07 11:53 | 30.11868 | 31.38201 | 381 ft | 6 kts | 252° |
| 2026-05-07 11:54 | 30.11881 | 31.38146 | 381 ft | 11 kts | 308° |
| 2026-05-07 11:54 | 30.11945 | 31.38076 | 381 ft | 14 kts | 317° |
| 2026-05-07 11:54 | 30.11984 | 31.38059 | 381 ft | 3 kts | 20° |
| 2026-05-07 11:54 | 30.12007 | 31.38080 | 381 ft | 0 kts | 47° |
| 2026-05-07 11:55 | 30.12007 | 31.38081 | 381 ft | 2 kts | 47° |
| 2026-05-07 11:55 | 30.12135 | 31.38249 | 384 ft | 63 kts | 49° |
| 2026-05-07 11:55 | 30.12625 | 31.38909 | 380 ft | 152 kts | 49° |
| 2026-05-07 11:55 | 30.13437 | 31.39904 | 1058 ft | 179 kts | 37° |
| 2026-05-07 11:56 | 30.14655 | 31.40328 | 2047 ft | 197 kts | 8° |
| 2026-05-07 11:56 | 30.15987 | 31.40984 | 2671 ft | 224 kts | 40° |
| 2026-05-07 11:56 | 30.16769 | 31.42611 | 3203 ft | 243 kts | 75° |
| 2026-05-07 11:56 | 30.17100 | 31.44554 | 3986 ft | 250 kts | 81° |
| 2026-05-07 11:57 | 30.16951 | 31.46597 | 4721 ft | 264 kts | 105° |
| 2026-05-07 11:57 | 30.16131 | 31.48492 | 5540 ft | 270 kts | 117° |
| 2026-05-07 11:57 | 30.15007 | 31.50274 | 6323 ft | 279 kts | 126° |
| 2026-05-07 11:57 | 30.13675 | 31.51983 | 6881 ft | 296 kts | 131° |
| 2026-05-07 11:58 | 30.12135 | 31.53705 | 7212 ft | 321 kts | 135° |
| 2026-05-07 11:58 | 30.10402 | 31.55470 | 7539 ft | 343 kts | 138° |
| 2026-05-07 11:58 | 30.08521 | 31.57297 | 7882 ft | 363 kts | 138° |
| 2026-05-07 11:58 | 30.06526 | 31.59212 | 8210 ft | 381 kts | 139° |
| 2026-05-07 11:59 | 30.04464 | 31.61194 | 8658 ft | 392 kts | 138° |
| 2026-05-07 11:59 | 30.02355 | 31.63238 | 9307 ft | 396 kts | 139° |
| 2026-05-07 11:59 | 30.00238 | 31.65303 | 9938 ft | 402 kts | 138° |
| 2026-05-07 11:59 | 29.98087 | 31.67413 | 10449 ft | 409 kts | 138° |
| 2026-05-07 12:00 | 29.95911 | 31.69554 | 11009 ft | 412 kts | 138° |
| 2026-05-07 12:00 | 29.93735 | 31.71697 | 11728 ft | 413 kts | 139° |
| 2026-05-07 12:00 | 29.91527 | 31.73870 | 12228 ft | 421 kts | 139° |
| 2026-05-07 12:00 | 29.89300 | 31.76061 | 12979 ft | 420 kts | 139° |
| 2026-05-07 12:01 | 29.87070 | 31.78251 | 13582 ft | 424 kts | 139° |
| 2026-05-07 12:01 | 29.84801 | 31.80480 | 14022 ft | 432 kts | 140° |
| 2026-05-07 12:01 | 29.82510 | 31.82728 | 14657 ft | 432 kts | 140° |
| 2026-05-07 12:01 | 29.80341 | 31.85131 | 15178 ft | 436 kts | 131° |
| 2026-05-07 12:02 | 29.78580 | 31.87985 | 15683 ft | 439 kts | 118° |
| 2026-05-07 12:02 | 29.77340 | 31.91195 | 16259 ft | 440 kts | 109° |
| 2026-05-07 12:02 | 29.76403 | 31.94551 | 16824 ft | 442 kts | 104° |
| 2026-05-07 12:02 | 29.75622 | 31.97994 | 17301 ft | 447 kts | 102° |
| 2026-05-07 12:03 | 29.74903 | 32.01491 | 17837 ft | 450 kts | 102° |
| 2026-05-07 12:03 | 29.74203 | 32.04964 | 18405 ft | 453 kts | 102° |
| 2026-05-07 12:03 | 29.73473 | 32.08506 | 18858 ft | 457 kts | 103° |
| 2026-05-07 12:03 | 29.72706 | 32.12109 | 19389 ft | 459 kts | 103° |
| 2026-05-07 12:04 | 29.71938 | 32.15627 | 19939 ft | 462 kts | 103° |
| 2026-05-07 12:04 | 29.71139 | 32.19226 | 20442 ft | 466 kts | 103° |
| 2026-05-07 12:04 | 29.70328 | 32.22844 | 20990 ft | 469 kts | 104° |
| 2026-05-07 12:04 | 29.69509 | 32.26484 | 21546 ft | 472 kts | 104° |
| 2026-05-07 12:05 | 29.68683 | 32.30151 | 22061 ft | 476 kts | 104° |
| 2026-05-07 12:05 | 29.67850 | 32.33845 | 22619 ft | 479 kts | 104° |
| 2026-05-07 12:05 | 29.67011 | 32.37564 | 23218 ft | 482 kts | 104° |
| 2026-05-07 12:05 | 29.66168 | 32.41301 | 23771 ft | 485 kts | 104° |
| 2026-05-07 12:06 | 29.65317 | 32.45073 | 24257 ft | 489 kts | 104° |
| 2026-05-07 12:06 | 29.64458 | 32.48869 | 24763 ft | 492 kts | 104° |
| 2026-05-07 12:06 | 29.63593 | 32.52691 | 25257 ft | 495 kts | 104° |
| 2026-05-07 12:06 | 29.62721 | 32.56534 | 25763 ft | 498 kts | 104° |
| 2026-05-07 12:07 | 29.61855 | 32.60350 | 26252 ft | 502 kts | 104° |
| 2026-05-07 12:07 | 29.60970 | 32.64241 | 26681 ft | 506 kts | 104° |
| 2026-05-07 12:07 | 29.60299 | 32.68233 | 27027 ft | 511 kts | 96° |
| 2026-05-07 12:07 | 29.60087 | 32.72313 | 27429 ft | 515 kts | 90° |
| 2026-05-07 12:08 | 29.60034 | 32.76432 | 27899 ft | 515 kts | 89° |
| 2026-05-07 12:08 | 29.60052 | 32.80561 | 28358 ft | 518 kts | 88° |
| 2026-05-07 12:08 | 29.60104 | 32.84719 | 28709 ft | 522 kts | 88° |
| 2026-05-07 12:08 | 29.60166 | 32.88881 | 29182 ft | 523 kts | 88° |
| 2026-05-07 12:09 | 29.60226 | 32.93084 | 29544 ft | 526 kts | 88° |
| 2026-05-07 12:09 | 29.60277 | 32.97265 | 30222 ft | 521 kts | 88° |
| 2026-05-07 12:09 | 29.60313 | 33.00773 | 30536 ft | 523 kts | 88° |
| 2026-05-07 12:13 | 29.60347 | 33.04438 | 30978 ft | 521 kts | 89° |
| 2026-05-07 12:13 | 29.60364 | 33.06402 | 31240 ft | 520 kts | 89° |
| 2026-05-07 12:13 | 29.60368 | 33.06945 | 31289 ft | 520 kts | 89° |
| 2026-05-07 12:13 | 29.60401 | 33.11018 | 31609 ft | 522 kts | 89° |
| 2026-05-07 12:14 | 29.60419 | 33.13539 | 31903 ft | 520 kts | 89° |
| 2026-05-07 12:14 | 29.60433 | 33.15389 | 32163 ft | 518 kts | 89° |
| 2026-05-07 12:14 | 29.60461 | 33.19501 | 32479 ft | 520 kts | 89° |
| 2026-05-07 12:15 | 29.60489 | 33.23677 | 32987 ft | 517 kts | 89° |
| 2026-05-07 12:15 | 29.60515 | 33.27793 | 33505 ft | 515 kts | 89° |
| 2026-05-07 12:15 | 29.60541 | 33.31907 | 34016 ft | 512 kts | 89° |
| 2026-05-07 12:15 | 29.60565 | 33.35988 | 34421 ft | 511 kts | 89° |
| 2026-05-07 12:16 | 29.60588 | 33.40074 | 34721 ft | 511 kts | 89° |
| 2026-05-07 12:16 | 29.60605 | 33.43102 | 34983 ft | 511 kts | 89° |
| 2026-05-07 12:16 | 29.60608 | 33.43780 | 35009 ft | 511 kts | 89° |
| 2026-05-07 12:16 | 29.60627 | 33.47869 | 35260 ft | 512 kts | 89° |
| 2026-05-07 12:17 | 29.60646 | 33.51960 | 35592 ft | 511 kts | 89° |
| 2026-05-07 12:17 | 29.60665 | 33.56055 | 35869 ft | 512 kts | 89° |
| 2026-05-07 12:17 | 29.60683 | 33.60150 | 36180 ft | 512 kts | 89° |
| 2026-05-07 12:17 | 29.60700 | 33.64236 | 36459 ft | 512 kts | 90° |
| 2026-05-07 12:18 | 29.60714 | 33.68330 | 36746 ft | 512 kts | 90° |
| 2026-05-07 12:18 | 29.60728 | 33.72419 | 37021 ft | 512 kts | 90° |
| 2026-05-07 12:18 | 29.60740 | 33.76515 | 37268 ft | 513 kts | 90° |
| 2026-05-07 12:18 | 29.60748 | 33.79230 | 37430 ft | 513 kts | 90° |
| 2026-05-07 12:19 | 29.60758 | 33.83333 | 37686 ft | 513 kts | 90° |
| 2026-05-07 12:19 | 29.60764 | 33.87437 | 37943 ft | 514 kts | 90° |
| 2026-05-07 12:19 | 29.60759 | 33.91539 | 38172 ft | 514 kts | 90° |
| 2026-05-07 12:19 | 29.60749 | 33.95652 | 38400 ft | 514 kts | 90° |
| 2026-05-07 12:20 | 29.60739 | 33.99765 | 38573 ft | 516 kts | 91° |
| 2026-05-07 12:20 | 29.60727 | 34.03890 | 38728 ft | 517 kts | 91° |
| 2026-05-07 12:20 | 29.60716 | 34.08026 | 38908 ft | 517 kts | 91° |
| 2026-05-07 12:20 | 29.60705 | 34.12153 | 39094 ft | 517 kts | 91° |
| 2026-05-07 12:21 | 29.60693 | 34.16239 | 39280 ft | 517 kts | 91° |
| 2026-05-07 12:21 | 29.60680 | 34.20369 | 39477 ft | 516 kts | 91° |
| 2026-05-07 12:21 | 29.60666 | 34.24498 | 39631 ft | 517 kts | 91° |
| 2026-05-07 12:21 | 29.60659 | 34.28638 | 39739 ft | 518 kts | 91° |
| 2026-05-07 12:22 | 29.60666 | 34.32780 | 39884 ft | 519 kts | 91° |
| 2026-05-07 12:22 | 29.60677 | 34.36925 | 40035 ft | 519 kts | 90° |
| 2026-05-07 12:22 | 29.60687 | 34.41036 | 40212 ft | 519 kts | 90° |
| 2026-05-07 12:22 | 29.60695 | 34.45181 | 40346 ft | 519 kts | 91° |
| 2026-05-07 12:23 | 29.60683 | 34.49323 | 40470 ft | 519 kts | 93° |
| 2026-05-07 12:23 | 29.60176 | 34.54356 | 40568 ft | 517 kts | 104° |
| 2026-05-07 12:24 | 29.57561 | 34.61972 | 40757 ft | 510 kts | 125° |
| 2026-05-07 12:24 | 29.55491 | 34.65186 | 40878 ft | 506 kts | 135° |
| 2026-05-07 12:24 | 29.52982 | 34.67994 | 40965 ft | 503 kts | 142° |
| 2026-05-07 12:25 | 29.47877 | 34.73495 | 40986 ft | 507 kts | 133° |
| 2026-05-07 12:25 | 29.44178 | 34.80399 | 40986 ft | 514 kts | 113° |
| 2026-05-07 12:26 | 29.42474 | 34.88442 | 40976 ft | 518 kts | 101° |
| 2026-05-07 12:26 | 29.41844 | 34.96634 | 40988 ft | 522 kts | 88° |
| 2026-05-07 12:27 | 29.43141 | 35.04816 | 40985 ft | 523 kts | 76° |
| 2026-05-07 12:27 | 29.45015 | 35.12841 | 40971 ft | 525 kts | 75° |
| 2026-05-07 12:28 | 29.46964 | 35.20920 | 40994 ft | 525 kts | 75° |
| 2026-05-07 12:28 | 29.48883 | 35.29017 | 40991 ft | 526 kts | 76° |
| 2026-05-07 12:29 | 29.50785 | 35.37184 | 40999 ft | 532 kts | 76° |
| 2026-05-07 12:29 | 29.52695 | 35.45433 | 40996 ft | 536 kts | 76° |
| 2026-05-07 12:30 | 29.54626 | 35.53734 | 40996 ft | 539 kts | 76° |
| 2026-05-07 12:30 | 29.56603 | 35.62046 | 40988 ft | 540 kts | 76° |
| 2026-05-07 12:31 | 29.58569 | 35.70308 | 40988 ft | 540 kts | 76° |
| 2026-05-07 12:31 | 29.60536 | 35.78631 | 40987 ft | 540 kts | 76° |
| 2026-05-07 12:32 | 29.62337 | 35.87011 | 40985 ft | 540 kts | 81° |
| 2026-05-07 12:32 | 29.63641 | 35.95501 | 40982 ft | 539 kts | 82° |
| 2026-05-07 12:33 | 29.65559 | 36.08248 | 40969 ft | 539 kts | 81° |
| 2026-05-07 12:33 | 29.66915 | 36.16737 | 40971 ft | 540 kts | 81° |
| 2026-05-07 12:34 | 29.68287 | 36.25221 | 40986 ft | 540 kts | 81° |
| 2026-05-07 12:34 | 29.69656 | 36.33715 | 40990 ft | 541 kts | 81° |
| 2026-05-07 12:35 | 29.71027 | 36.42225 | 40984 ft | 541 kts | 81° |
| 2026-05-07 12:35 | 29.72409 | 36.50730 | 40960 ft | 541 kts | 81° |
| 2026-05-07 12:36 | 29.73789 | 36.59261 | 40988 ft | 542 kts | 82° |
| 2026-05-07 12:36 | 29.74711 | 36.67836 | 40995 ft | 538 kts | 94° |
| 2026-05-07 12:37 | 29.73733 | 36.76283 | 40987 ft | 531 kts | 105° |
| 2026-05-07 12:37 | 29.72130 | 36.84563 | 41013 ft | 531 kts | 107° |
| 2026-05-07 12:38 | 29.70430 | 36.92819 | 40999 ft | 531 kts | 107° |
| 2026-05-07 12:38 | 29.68743 | 37.01093 | 40997 ft | 531 kts | 107° |
| 2026-05-07 12:39 | 29.67074 | 37.09371 | 41007 ft | 531 kts | 107° |
| 2026-05-07 12:39 | 29.65420 | 37.17594 | 41010 ft | 531 kts | 107° |
| 2026-05-07 12:40 | 29.63749 | 37.25870 | 41003 ft | 531 kts | 108° |
| 2026-05-07 12:40 | 29.62071 | 37.34146 | 41011 ft | 532 kts | 108° |
| 2026-05-07 12:41 | 29.60386 | 37.42425 | 41008 ft | 532 kts | 108° |
| 2026-05-07 12:41 | 29.58698 | 37.50693 | 41009 ft | 532 kts | 108° |
| 2026-05-07 12:42 | 29.57001 | 37.58973 | 41004 ft | 532 kts | 108° |
| 2026-05-07 12:42 | 29.55300 | 37.67248 | 41004 ft | 532 kts | 108° |
| 2026-05-07 12:43 | 29.53592 | 37.75528 | 40999 ft | 532 kts | 108° |
| 2026-05-07 12:43 | 29.51877 | 37.83814 | 40998 ft | 533 kts | 108° |
| 2026-05-07 12:44 | 29.50157 | 37.92096 | 40999 ft | 533 kts | 108° |
| 2026-05-07 12:44 | 29.48434 | 38.00371 | 40999 ft | 534 kts | 109° |
| 2026-05-07 12:45 | 29.46884 | 38.08733 | 41001 ft | 537 kts | 107° |
| 2026-05-07 12:45 | 29.45455 | 38.17140 | 41001 ft | 537 kts | 106° |
| 2026-05-07 12:46 | 29.43999 | 38.25544 | 40999 ft | 537 kts | 107° |
| 2026-05-07 12:46 | 29.42506 | 38.33950 | 41001 ft | 538 kts | 107° |
| 2026-05-07 12:47 | 29.41005 | 38.42302 | 40999 ft | 538 kts | 107° |
| 2026-05-07 12:47 | 29.39490 | 38.50703 | 41002 ft | 537 kts | 107° |
| 2026-05-07 12:48 | 29.37973 | 38.59092 | 41002 ft | 537 kts | 107° |
| 2026-05-07 12:48 | 29.36452 | 38.67474 | 40990 ft | 536 kts | 108° |
| 2026-05-07 12:49 | 29.34924 | 38.75855 | 41009 ft | 538 kts | 108° |
| 2026-05-07 12:49 | 29.33388 | 38.84257 | 41007 ft | 538 kts | 108° |
| 2026-05-07 12:50 | 29.31844 | 38.92651 | 41008 ft | 538 kts | 108° |
| 2026-05-07 12:50 | 29.30143 | 39.00934 | 41010 ft | 537 kts | 110° |
| 2026-05-07 12:51 | 29.28351 | 39.09254 | 41012 ft | 537 kts | 110° |
| 2026-05-07 12:51 | 29.26573 | 39.17582 | 41017 ft | 538 kts | 110° |
| 2026-05-07 12:52 | 29.24810 | 39.25922 | 41020 ft | 539 kts | 110° |
| 2026-05-07 12:52 | 29.23049 | 39.34270 | 41020 ft | 539 kts | 110° |
| 2026-05-07 12:53 | 29.21282 | 39.42608 | 41016 ft | 540 kts | 110° |
| 2026-05-07 12:53 | 29.19504 | 39.50966 | 41019 ft | 540 kts | 110° |
| 2026-05-07 12:54 | 29.17735 | 39.59258 | 41001 ft | 540 kts | 111° |
| 2026-05-07 12:54 | 29.15945 | 39.67616 | 41022 ft | 540 kts | 111° |
| 2026-05-07 12:55 | 29.14153 | 39.75959 | 41017 ft | 540 kts | 111° |
| 2026-05-07 12:55 | 29.12355 | 39.84302 | 41011 ft | 540 kts | 111° |
| 2026-05-07 12:56 | 29.10561 | 39.92643 | 41020 ft | 541 kts | 110° |
| 2026-05-07 12:56 | 29.09139 | 40.01155 | 41030 ft | 546 kts | 106° |
| 2026-05-07 12:57 | 29.07898 | 40.09728 | 41026 ft | 546 kts | 107° |
| 2026-05-07 12:57 | 29.06606 | 40.18282 | 41029 ft | 546 kts | 107° |
| 2026-05-07 12:58 | 29.05260 | 40.26818 | 41015 ft | 545 kts | 108° |
| 2026-05-07 12:58 | 29.03889 | 40.35350 | 41047 ft | 546 kts | 108° |
| 2026-05-07 12:59 | 29.02512 | 40.43879 | 41038 ft | 546 kts | 108° |
| 2026-05-07 12:59 | 29.01132 | 40.52417 | 41041 ft | 546 kts | 108° |
| 2026-05-07 13:00 | 28.99745 | 40.60966 | 41039 ft | 547 kts | 108° |
| 2026-05-07 13:00 | 28.98354 | 40.69504 | 41033 ft | 547 kts | 108° |
| 2026-05-07 13:01 | 28.96971 | 40.77987 | 41036 ft | 547 kts | 108° |
| 2026-05-07 13:01 | 28.95566 | 40.86526 | 41037 ft | 547 kts | 108° |
| 2026-05-07 13:02 | 28.94386 | 40.93670 | 41026 ft | 547 kts | 108° |
| 2026-05-07 13:02 | 28.92972 | 41.02206 | 41033 ft | 547 kts | 108° |
| 2026-05-07 13:03 | 28.91555 | 41.10737 | 41035 ft | 547 kts | 109° |
| 2026-05-07 13:03 | 28.90136 | 41.19237 | 41024 ft | 547 kts | 109° |
| 2026-05-07 13:04 | 28.88707 | 41.27769 | 41028 ft | 547 kts | 109° |
| 2026-05-07 13:04 | 28.87275 | 41.36279 | 41016 ft | 546 kts | 109° |
| 2026-05-07 13:05 | 28.85844 | 41.44752 | 41020 ft | 547 kts | 109° |
| 2026-05-07 13:05 | 28.84404 | 41.53274 | 41017 ft | 547 kts | 109° |
| 2026-05-07 13:06 | 28.82951 | 41.61800 | 41017 ft | 547 kts | 109° |
| 2026-05-07 13:06 | 28.81489 | 41.70334 | 41018 ft | 548 kts | 109° |
| 2026-05-07 13:07 | 28.80022 | 41.78876 | 41000 ft | 548 kts | 109° |
| 2026-05-07 13:07 | 28.78560 | 41.87361 | 41016 ft | 549 kts | 109° |
| 2026-05-07 13:08 | 28.77082 | 41.95910 | 41011 ft | 550 kts | 109° |
| 2026-05-07 13:08 | 28.75597 | 42.04470 | 41007 ft | 550 kts | 109° |
| 2026-05-07 13:09 | 28.74102 | 42.13039 | 41012 ft | 552 kts | 109° |
| 2026-05-07 13:09 | 28.72601 | 42.21620 | 41022 ft | 551 kts | 109° |
| 2026-05-07 13:10 | 28.71128 | 42.30014 | 41003 ft | 552 kts | 109° |
| 2026-05-07 13:10 | 28.69623 | 42.38551 | 41006 ft | 552 kts | 109° |
| 2026-05-07 13:11 | 28.68107 | 42.47112 | 41007 ft | 552 kts | 109° |
| 2026-05-07 13:11 | 28.66581 | 42.55696 | 41008 ft | 553 kts | 109° |
| 2026-05-07 13:12 | 28.65035 | 42.64263 | 40989 ft | 550 kts | 111° |
| 2026-05-07 13:12 | 28.63915 | 42.68379 | 40999 ft | 538 kts | 121° |
| 2026-05-07 13:12 | 28.62383 | 42.72219 | 40991 ft | 531 kts | 126° |
| 2026-05-07 13:13 | 28.59009 | 42.79672 | 40993 ft | 528 kts | 128° |
| 2026-05-07 13:13 | 28.55524 | 42.87026 | 40991 ft | 528 kts | 128° |
| 2026-05-07 13:14 | 28.52038 | 42.94380 | 40990 ft | 528 kts | 128° |
| 2026-05-07 13:14 | 28.48564 | 43.01750 | 40994 ft | 528 kts | 128° |
| 2026-05-07 13:15 | 28.45098 | 43.09114 | 40989 ft | 528 kts | 128° |
| 2026-05-07 13:15 | 28.41629 | 43.16474 | 40984 ft | 528 kts | 128° |
| 2026-05-07 13:16 | 28.38154 | 43.23833 | 40973 ft | 528 kts | 128° |
| 2026-05-07 13:16 | 28.34676 | 43.31183 | 40977 ft | 528 kts | 128° |
| 2026-05-07 13:17 | 28.31195 | 43.38523 | 40972 ft | 528 kts | 128° |
| 2026-05-07 13:17 | 28.27711 | 43.45858 | 40956 ft | 528 kts | 128° |
| 2026-05-07 13:18 | 28.24224 | 43.53189 | 40963 ft | 528 kts | 128° |
| 2026-05-07 13:18 | 28.20756 | 43.60467 | 40961 ft | 528 kts | 128° |
| 2026-05-07 13:19 | 28.17255 | 43.67782 | 40958 ft | 527 kts | 129° |
| 2026-05-07 13:19 | 28.13724 | 43.75065 | 40958 ft | 526 kts | 129° |
| 2026-05-07 13:20 | 28.10193 | 43.82329 | 40949 ft | 526 kts | 129° |
| 2026-05-07 13:20 | 28.06665 | 43.89590 | 40938 ft | 526 kts | 129° |
| 2026-05-07 13:21 | 28.03132 | 43.96855 | 40954 ft | 527 kts | 129° |
| 2026-05-07 13:21 | 27.99588 | 44.04132 | 40943 ft | 527 kts | 129° |
| 2026-05-07 13:22 | 27.96041 | 44.11402 | 40952 ft | 528 kts | 129° |
| 2026-05-07 13:22 | 27.92504 | 44.18682 | 40949 ft | 528 kts | 129° |
| 2026-05-07 13:23 | 27.89006 | 44.25992 | 40946 ft | 529 kts | 128° |
| 2026-05-07 13:23 | 27.85532 | 44.33249 | 40949 ft | 529 kts | 128° |
| 2026-05-07 13:24 | 27.83624 | 44.37224 | 40951 ft | 529 kts | 129° |
| 2026-05-07 13:24 | 27.81541 | 44.41556 | 40947 ft | 529 kts | 129° |
| 2026-05-07 13:25 | 27.78024 | 44.48850 | 40948 ft | 529 kts | 129° |
| 2026-05-07 13:25 | 27.74497 | 44.56151 | 40948 ft | 529 kts | 129° |
| 2026-05-07 13:26 | 27.70967 | 44.63447 | 40946 ft | 529 kts | 129° |
| 2026-05-07 13:26 | 27.67431 | 44.70742 | 40955 ft | 530 kts | 129° |
| 2026-05-07 13:27 | 27.64422 | 44.78439 | 40958 ft | 549 kts | 114° |
| 2026-05-07 13:27 | 27.62639 | 44.86882 | 40960 ft | 555 kts | 110° |
| 2026-05-07 13:28 | 27.61105 | 44.95426 | 40959 ft | 557 kts | 109° |
| 2026-05-07 13:28 | 27.59583 | 45.03981 | 40961 ft | 557 kts | 110° |
| 2026-05-07 13:29 | 27.58019 | 45.12540 | 40962 ft | 557 kts | 110° |
| 2026-05-07 13:29 | 27.56806 | 45.19087 | 40964 ft | 557 kts | 110° |
| 2026-05-07 13:32 | 27.56475 | 45.20869 | 40960 ft | 557 kts | 110° |
| 2026-05-07 13:32 | 27.55884 | 45.24043 | 40962 ft | 557 kts | 110° |
| 2026-05-07 13:33 | 27.54384 | 45.32080 | 40959 ft | 557 kts | 110° |
| 2026-05-07 13:33 | 27.53376 | 45.37452 | 40963 ft | 556 kts | 110° |
| 2026-05-07 13:34 | 27.53266 | 45.38038 | 40960 ft | 556 kts | 110° |
| 2026-05-07 13:35 | 27.51673 | 45.46509 | 40962 ft | 555 kts | 110° |
| 2026-05-07 13:35 | 27.50067 | 45.55020 | 40954 ft | 555 kts | 110° |
| 2026-05-07 13:36 | 27.48457 | 45.63522 | 40964 ft | 554 kts | 110° |
| 2026-05-07 13:36 | 27.46845 | 45.72010 | 40950 ft | 554 kts | 110° |
| 2026-05-07 13:37 | 27.45232 | 45.80479 | 40943 ft | 553 kts | 110° |
| 2026-05-07 13:37 | 27.43615 | 45.88935 | 40944 ft | 553 kts | 110° |
| 2026-05-07 13:38 | 27.43584 | 45.89093 | 40938 ft | 553 kts | 110° |
| 2026-05-07 13:45 | 27.42596 | 45.94244 | 40942 ft | 553 kts | 110° |
| 2026-05-07 13:45 | 27.41234 | 46.01332 | 40942 ft | 553 kts | 110° |
| 2026-05-07 13:47 | 27.39773 | 46.08904 | 40926 ft | 552 kts | 110° |
| 2026-05-07 13:47 | 27.38140 | 46.17347 | 40933 ft | 551 kts | 110° |
| 2026-05-07 13:48 | 27.36506 | 46.25768 | 40927 ft | 551 kts | 110° |
| 2026-05-07 13:48 | 27.34875 | 46.34201 | 40928 ft | 552 kts | 109° |
| 2026-05-07 13:49 | 27.33386 | 46.42682 | 40925 ft | 553 kts | 108° |
| 2026-05-07 13:49 | 27.31937 | 46.51180 | 40923 ft | 553 kts | 108° |
| 2026-05-07 13:50 | 27.30883 | 46.57270 | 40914 ft | 552 kts | 108° |
| 2026-05-07 13:50 | 27.29396 | 46.65738 | 40918 ft | 552 kts | 108° |
| 2026-05-07 13:51 | 27.27897 | 46.74206 | 40907 ft | 552 kts | 108° |
| 2026-05-07 13:51 | 27.26393 | 46.82667 | 40896 ft | 552 kts | 108° |
| 2026-05-07 13:52 | 27.24915 | 46.90955 | 40905 ft | 552 kts | 108° |
| 2026-05-07 13:52 | 27.23521 | 46.98750 | 40913 ft | 552 kts | 108° |
| 2026-05-07 13:53 | 27.22001 | 47.07217 | 40895 ft | 552 kts | 108° |
| 2026-05-07 13:53 | 27.20489 | 47.15613 | 40906 ft | 552 kts | 108° |
| 2026-05-07 13:54 | 27.18959 | 47.24074 | 40893 ft | 552 kts | 108° |
| 2026-05-07 13:54 | 27.17427 | 47.32519 | 40897 ft | 552 kts | 108° |
| 2026-05-07 13:55 | 27.15888 | 47.40970 | 40895 ft | 551 kts | 108° |
| 2026-05-07 13:55 | 27.14345 | 47.49413 | 40897 ft | 551 kts | 108° |
| 2026-05-07 13:56 | 27.12800 | 47.57854 | 40892 ft | 551 kts | 108° |
| 2026-05-07 13:56 | 27.11240 | 47.66278 | 40885 ft | 551 kts | 108° |
| 2026-05-07 13:57 | 27.09684 | 47.74637 | 40886 ft | 550 kts | 108° |
| 2026-05-07 13:57 | 27.08117 | 47.83037 | 40886 ft | 550 kts | 108° |
| 2026-05-07 13:58 | 27.06977 | 47.89133 | 40880 ft | 550 kts | 108° |
| 2026-05-07 13:58 | 27.05403 | 47.97529 | 40876 ft | 550 kts | 108° |
| 2026-05-07 13:59 | 27.03638 | 48.05839 | 40866 ft | 547 kts | 110° |
| 2026-05-07 13:59 | 27.01735 | 48.14102 | 40875 ft | 546 kts | 111° |
| 2026-05-07 14:00 | 26.99851 | 48.22355 | 40873 ft | 547 kts | 110° |
| 2026-05-07 14:00 | 26.97992 | 48.30626 | 40874 ft | 547 kts | 110° |
| 2026-05-07 14:01 | 26.96135 | 48.38910 | 40864 ft | 547 kts | 110° |
| 2026-05-07 14:01 | 26.94291 | 48.47120 | 40857 ft | 547 kts | 110° |
| 2026-05-07 14:02 | 26.92420 | 48.55415 | 40859 ft | 546 kts | 110° |
| 2026-05-07 14:02 | 26.90563 | 48.63623 | 40860 ft | 546 kts | 110° |
| 2026-05-07 14:03 | 26.88692 | 48.71865 | 40850 ft | 546 kts | 110° |
| 2026-05-07 14:03 | 26.86912 | 48.80141 | 40848 ft | 548 kts | 107° |
| 2026-05-07 14:04 | 26.85441 | 48.88527 | 40845 ft | 549 kts | 106° |
| 2026-05-07 14:04 | 26.84002 | 48.96891 | 40845 ft | 549 kts | 107° |
| 2026-05-07 14:05 | 26.82533 | 49.05120 | 40845 ft | 549 kts | 107° |
| 2026-05-07 14:05 | 26.81006 | 49.13481 | 40843 ft | 549 kts | 107° |
| 2026-05-07 14:06 | 26.79464 | 49.21859 | 40842 ft | 549 kts | 107° |
| 2026-05-07 14:06 | 26.77918 | 49.30243 | 40835 ft | 549 kts | 107° |
| 2026-05-07 14:07 | 26.76269 | 49.38576 | 40829 ft | 545 kts | 113° |
| 2026-05-07 14:07 | 26.73974 | 49.46649 | 40822 ft | 544 kts | 114° |
| 2026-05-07 14:08 | 26.71571 | 49.54672 | 40818 ft | 544 kts | 115° |
| 2026-05-07 14:08 | 26.69147 | 49.62702 | 40798 ft | 545 kts | 115° |
| 2026-05-07 14:09 | 26.66742 | 49.70716 | 40822 ft | 544 kts | 114° |
| 2026-05-07 14:09 | 26.64346 | 49.78692 | 40823 ft | 544 kts | 114° |
| 2026-05-07 14:10 | 26.61936 | 49.86700 | 40825 ft | 544 kts | 114° |
| 2026-05-07 14:10 | 26.59522 | 49.94697 | 40826 ft | 543 kts | 114° |
| 2026-05-07 14:11 | 26.57095 | 50.02692 | 40816 ft | 543 kts | 114° |
| 2026-05-07 14:11 | 26.54665 | 50.10688 | 40823 ft | 543 kts | 114° |
| 2026-05-07 14:12 | 26.52235 | 50.18674 | 40814 ft | 543 kts | 114° |
| 2026-05-07 14:12 | 26.49802 | 50.26661 | 40811 ft | 543 kts | 114° |
| 2026-05-07 14:13 | 26.47378 | 50.34603 | 40808 ft | 543 kts | 114° |
| 2026-05-07 14:13 | 26.46163 | 50.38582 | 40592 ft | 538 kts | 114° |
| 2026-05-07 14:13 | 26.45001 | 50.42535 | 40360 ft | 534 kts | 112° |
| 2026-05-07 14:13 | 26.43895 | 50.46487 | 40130 ft | 533 kts | 112° |
| 2026-05-07 14:14 | 26.42808 | 50.50443 | 39647 ft | 533 kts | 112° |
| 2026-05-07 14:14 | 26.41718 | 50.54412 | 38981 ft | 535 kts | 112° |
| 2026-05-07 14:14 | 26.40566 | 50.58338 | 38473 ft | 529 kts | 116° |
| 2026-05-07 14:14 | 26.39048 | 50.62053 | 37493 ft | 526 kts | 126° |
| 2026-05-07 14:15 | 26.37012 | 50.65426 | 36463 ft | 522 kts | 136° |
| 2026-05-07 14:15 | 26.34500 | 50.68317 | 35568 ft | 517 kts | 144° |
| 2026-05-07 14:15 | 26.31818 | 50.70985 | 34716 ft | 518 kts | 145° |
| 2026-05-07 14:15 | 26.29100 | 50.73642 | 33883 ft | 520 kts | 145° |
| 2026-05-07 14:16 | 26.26389 | 50.76290 | 32931 ft | 522 kts | 145° |
| 2026-05-07 14:16 | 26.23652 | 50.78956 | 31998 ft | 523 kts | 146° |
| 2026-05-07 14:16 | 26.20889 | 50.81605 | 31045 ft | 524 kts | 146° |
| 2026-05-07 14:16 | 26.18146 | 50.84245 | 30116 ft | 525 kts | 145° |
| 2026-05-07 14:17 | 26.15377 | 50.86928 | 29051 ft | 526 kts | 144° |
| 2026-05-07 14:17 | 26.12660 | 50.89574 | 28067 ft | 517 kts | 144° |
| 2026-05-07 14:17 | 26.09999 | 50.92173 | 26632 ft | 506 kts | 143° |
| 2026-05-07 14:17 | 26.07371 | 50.94736 | 25113 ft | 500 kts | 142° |
| 2026-05-07 14:18 | 26.04766 | 50.97276 | 23749 ft | 491 kts | 142° |
| 2026-05-07 14:18 | 26.02223 | 50.99756 | 22395 ft | 480 kts | 141° |
| 2026-05-07 14:18 | 25.99765 | 51.02153 | 21358 ft | 460 kts | 141° |
| 2026-05-07 14:18 | 25.97379 | 51.04472 | 19904 ft | 452 kts | 141° |
| 2026-05-07 14:19 | 25.95042 | 51.06746 | 18668 ft | 441 kts | 141° |
| 2026-05-07 14:19 | 25.92771 | 51.08955 | 17393 ft | 428 kts | 141° |
| 2026-05-07 14:19 | 25.90551 | 51.11110 | 15896 ft | 421 kts | 140° |
| 2026-05-07 14:19 | 25.88369 | 51.13230 | 14545 ft | 412 kts | 140° |
| 2026-05-07 14:20 | 25.86228 | 51.15307 | 13054 ft | 406 kts | 140° |
| 2026-05-07 14:20 | 25.84142 | 51.17333 | 11802 ft | 406 kts | 139° |
| 2026-05-07 14:20 | 25.82035 | 51.19380 | 11102 ft | 401 kts | 139° |
| 2026-05-07 14:20 | 25.79945 | 51.21405 | 10362 ft | 397 kts | 139° |
| 2026-05-07 14:21 | 25.77906 | 51.23380 | 9657 ft | 392 kts | 139° |
| 2026-05-07 14:21 | 25.75864 | 51.25357 | 8897 ft | 387 kts | 139° |
| 2026-05-07 14:21 | 25.73845 | 51.27310 | 8083 ft | 384 kts | 138° |
| 2026-05-07 14:21 | 25.71840 | 51.29249 | 7476 ft | 378 kts | 138° |
| 2026-05-07 14:22 | 25.69853 | 51.31167 | 7027 ft | 379 kts | 138° |
| 2026-05-07 14:22 | 25.67878 | 51.33074 | 6302 ft | 375 kts | 139° |
| 2026-05-07 14:22 | 25.65923 | 51.34962 | 5730 ft | 366 kts | 138° |
| 2026-05-07 14:22 | 25.64045 | 51.36771 | 5480 ft | 348 kts | 139° |
| 2026-05-07 14:23 | 25.62273 | 51.38473 | 5346 ft | 328 kts | 139° |
| 2026-05-07 14:23 | 25.60597 | 51.40077 | 5256 ft | 308 kts | 139° |
| 2026-05-07 14:23 | 25.59025 | 51.41580 | 5167 ft | 290 kts | 139° |
| 2026-05-07 14:23 | 25.57538 | 51.43007 | 5060 ft | 275 kts | 138° |
| 2026-05-07 14:24 | 25.56135 | 51.44362 | 4958 ft | 261 kts | 138° |
| 2026-05-07 14:24 | 25.54802 | 51.45651 | 4851 ft | 248 kts | 139° |
| 2026-05-07 14:24 | 25.53568 | 51.46844 | 4743 ft | 236 kts | 138° |
| 2026-05-07 14:24 | 25.52373 | 51.48001 | 4640 ft | 224 kts | 138° |
| 2026-05-07 14:25 | 25.51142 | 51.49026 | 4502 ft | 216 kts | 149° |
| 2026-05-07 14:25 | 25.49807 | 51.49744 | 4241 ft | 211 kts | 158° |
| 2026-05-07 14:25 | 25.48450 | 51.50360 | 3909 ft | 210 kts | 157° |
| 2026-05-07 14:25 | 25.47104 | 51.50980 | 3588 ft | 209 kts | 158° |
| 2026-05-07 14:26 | 25.46217 | 51.51375 | 3396 ft | 207 kts | 158° |
| 2026-05-07 14:26 | 25.44890 | 51.51962 | 3128 ft | 203 kts | 159° |
| 2026-05-07 14:26 | 25.43191 | 51.52719 | 2797 ft | 198 kts | 159° |
| 2026-05-07 14:26 | 25.42321 | 51.53105 | 2620 ft | 195 kts | 159° |
| 2026-05-07 14:27 | 25.41072 | 51.53659 | 2377 ft | 191 kts | 159° |
| 2026-05-07 14:27 | 25.39856 | 51.54199 | 2148 ft | 186 kts | 159° |
| 2026-05-07 14:27 | 25.38675 | 51.54724 | 1926 ft | 181 kts | 159° |
| 2026-05-07 14:27 | 25.37527 | 51.55233 | 1712 ft | 178 kts | 160° |
| 2026-05-07 14:28 | 25.36389 | 51.55737 | 1472 ft | 172 kts | 160° |
| 2026-05-07 14:28 | 25.35301 | 51.56220 | 1262 ft | 166 kts | 160° |
| 2026-05-07 14:28 | 25.34249 | 51.56689 | 1035 ft | 160 kts | 158° |
| 2026-05-07 14:28 | 25.33234 | 51.57145 | 866 ft | 157 kts | 159° |
| 2026-05-07 14:29 | 25.32227 | 51.57592 | 680 ft | 154 kts | 159° |
| 2026-05-07 14:29 | 25.31237 | 51.58030 | 500 ft | 153 kts | 158° |
| 2026-05-07 14:29 | 25.30246 | 51.58461 | 317 ft | 154 kts | 158° |
| 2026-05-07 14:29 | 25.29254 | 51.58901 | 105 ft | 152 kts | 155° |
| 2026-05-07 14:30 | 25.28307 | 51.59322 | 35 ft | 132 kts | 158° |
| 2026-05-07 14:30 | 25.27588 | 51.59639 | 31 ft | 91 kts | 158° |
| 2026-05-07 14:30 | 25.27128 | 51.59841 | 32 ft | 51 kts | 158° |
| 2026-05-07 14:30 | 25.26862 | 51.59958 | 31 ft | 39 kts | 158° |
| 2026-05-07 14:31 | 25.26638 | 51.60119 | 31 ft | 38 kts | 130° |
| 2026-05-07 14:31 | 25.26510 | 51.60356 | 35 ft | 34 kts | 88° |
| 2026-05-07 14:31 | 25.26580 | 51.60576 | 36 ft | 17 kts | 69° |
| 2026-05-07 14:31 | 25.26580 | 51.60651 | 36 ft | 10 kts | 105° |
| 2026-05-07 14:32 | 25.26552 | 51.60731 | 36 ft | 12 kts | 113° |
| 2026-05-07 14:32 | 25.26515 | 51.60828 | 36 ft | 15 kts | 118° |
| 2026-05-07 14:32 | 25.26429 | 51.60900 | 36 ft | 16 kts | 145° |
| 2026-05-07 14:32 | 25.26428 | 51.61009 | 36 ft | 16 kts | 68° |
| 2026-05-07 14:33 | 25.26461 | 51.61100 | 36 ft | 0 kts | 68° |
| 2026-05-07 14:33 | 25.26462 | 51.61103 | 36 ft | 2 kts | 68° |
| 2026-05-07 14:33 | 25.26466 | 51.61114 | 36 ft | 0 kts | 68° |